createdAt,value
2022-08-27T00:01:25.535Z,70.79
2022-08-27T00:03:56.126Z,70.58
2022-08-27T00:06:25.031Z,70.44
2022-08-27T00:08:53.800Z,70.80
2022-08-27T00:11:24.822Z,70.40
2022-08-27T00:13:54.611Z,70.57
2022-08-27T00:16:22.053Z,70.61
2022-08-27T00:18:49.733Z,69.92
2022-08-27T00:21:18.286Z,69.92
2022-08-27T00:23:45.613Z,69.40
2022-08-27T00:26:13.730Z,69.09
2022-08-27T00:28:42.572Z,69.25
2022-08-27T00:31:12.124Z,68.70
2022-08-27T00:33:40.832Z,68.53
2022-08-27T00:36:08.553Z,68.45
2022-08-27T00:38:38.786Z,67.54
2022-08-27T00:41:07.925Z,67.56
2022-08-27T00:43:59.556Z,67.24
2022-08-27T00:46:34.042Z,67.21
2022-08-27T00:49:07.029Z,67.45
2022-08-27T00:51:37.293Z,67.39
2022-08-27T00:54:06.829Z,66.92
2022-08-27T00:56:48.671Z,66.96
2022-08-27T00:59:19.858Z,67.14
2022-08-27T01:02:05.962Z,66.94
2022-08-27T01:04:36.046Z,66.77
2022-08-27T01:07:05.660Z,66.89
2022-08-27T01:09:34.865Z,67.38
2022-08-27T01:12:02.707Z,66.29
2022-08-27T01:14:29.914Z,65.35
2022-08-27T01:17:00.949Z,65.46
2022-08-27T01:19:38.606Z,64.42
2022-08-27T01:22:19.085Z,64.79
2022-08-27T01:24:52.210Z,64.46
2022-08-27T01:27:22.707Z,65.30
2022-08-27T01:29:50.318Z,63.92
2022-08-27T01:32:27.961Z,65.30
2022-08-27T01:34:56.398Z,65.04
2022-08-27T01:37:26.922Z,65.08
2022-08-27T01:39:56.565Z,64.82
2022-08-27T01:42:35.325Z,64.58
2022-08-27T01:45:13.003Z,64.76
2022-08-27T01:47:40.402Z,64.49
2022-08-27T01:50:12.125Z,64.30
2022-08-27T01:52:39.607Z,63.70
2022-08-27T01:55:09.619Z,64.12
2022-08-27T01:57:36.972Z,63.96
2022-08-27T02:00:17.973Z,63.57
2022-08-27T02:02:47.860Z,64.12
2022-08-27T02:05:16.752Z,63.96
2022-08-27T02:07:44.736Z,63.17
2022-08-27T02:10:15.487Z,63.20
2022-08-27T02:12:42.757Z,62.80
2022-08-27T02:15:10.421Z,63.25
2022-08-27T02:17:38.952Z,65.52
2022-08-27T02:20:09.293Z,67.05
2022-08-27T02:22:37.266Z,67.80
2022-08-27T02:25:10.357Z,69.18
2022-08-27T02:27:38.193Z,69.88
2022-08-27T02:30:06.385Z,70.87
2022-08-27T02:32:33.797Z,71.44
2022-08-27T02:35:01.805Z,71.78
2022-08-27T02:37:29.529Z,71.54
2022-08-27T02:39:59.349Z,71.14
2022-08-27T02:42:28.101Z,70.29
2022-08-27T02:44:55.280Z,69.45
2022-08-27T02:47:22.712Z,67.60
2022-08-27T02:49:49.920Z,66.92
2022-08-27T02:52:17.478Z,66.94
2022-08-27T02:54:52.861Z,66.52
2022-08-27T02:57:20.314Z,65.77
2022-08-27T02:59:47.987Z,65.90
2022-08-27T03:02:15.516Z,65.76
2022-08-27T03:04:43.166Z,65.71
2022-08-27T03:07:14.959Z,66.37
2022-08-27T03:09:46.385Z,66.57
2022-08-27T03:12:13.674Z,67.14
2022-08-27T03:14:41.061Z,67.42
2022-08-27T03:17:26.838Z,68.26
2022-08-27T03:19:55.837Z,68.02
2022-08-27T03:22:23.087Z,68.17
2022-08-27T03:24:51.381Z,68.66
2022-08-27T03:27:18.537Z,69.32
2022-08-27T03:29:45.858Z,69.86
2022-08-27T03:32:13.078Z,69.63
2022-08-27T03:34:40.290Z,69.59
2022-08-27T03:37:07.506Z,69.56
2022-08-27T03:39:34.960Z,68.86
2022-08-27T03:42:02.613Z,69.10
2022-08-27T03:44:30.218Z,68.48
2022-08-27T03:46:57.542Z,68.33
2022-08-27T03:49:24.819Z,68.62
2022-08-27T03:51:54.324Z,68.91
2022-08-27T03:54:22.886Z,69.02
2022-08-27T03:56:52.494Z,69.67
2022-08-27T03:59:20.424Z,69.97
2022-08-27T04:01:47.797Z,70.07
2022-08-27T04:04:15.058Z,69.75
2022-08-27T04:06:42.606Z,69.27
2022-08-27T04:09:09.872Z,69.36
2022-08-27T04:11:37.784Z,68.28
2022-08-27T04:14:24.765Z,67.78
2022-08-27T04:16:57.978Z,67.22
2022-08-27T04:19:28.516Z,67.42
2022-08-27T04:22:04.502Z,67.21
2022-08-27T04:24:33.877Z,67.51
2022-08-27T04:27:01.977Z,67.58
2022-08-27T04:29:29.912Z,67.73
2022-08-27T04:31:57.266Z,67.60
2022-08-27T04:34:25.000Z,67.81
2022-08-27T04:36:54.634Z,68.03
2022-08-27T04:39:22.046Z,68.01
2022-08-27T04:41:51.115Z,68.48
2022-08-27T04:44:18.451Z,68.57
2022-08-27T04:46:49.216Z,68.39
2022-08-27T04:49:17.388Z,68.28
2022-08-27T04:51:44.577Z,68.09
2022-08-27T04:54:13.304Z,68.26
2022-08-27T04:56:41.074Z,66.66
2022-08-27T04:59:10.353Z,64.41
2022-08-27T05:01:39.878Z,62.17
2022-08-27T05:04:08.313Z,59.49
2022-08-27T05:06:36.981Z,57.63
2022-08-27T05:09:05.977Z,55.23
2022-08-27T05:11:34.971Z,53.10
2022-08-27T05:14:07.315Z,51.38
2022-08-27T05:16:38.734Z,49.55
2022-08-27T05:19:14.875Z,48.17
2022-08-27T05:21:47.940Z,46.62
2022-08-27T05:24:15.880Z,46.25
2022-08-27T05:26:43.517Z,45.29
2022-08-27T05:29:11.732Z,42.97
2022-08-27T05:31:42.769Z,42.66
2022-08-27T05:34:16.707Z,41.72
2022-08-27T05:36:48.126Z,41.21
2022-08-27T05:39:17.554Z,40.65
2022-08-27T05:41:45.117Z,41.00
2022-08-27T05:44:46.287Z,40.54
2022-08-27T05:46:59.692Z,40.79
2022-08-27T05:49:26.995Z,38.56
2022-08-27T05:51:54.455Z,37.83
2022-08-27T05:54:21.934Z,37.82
2022-08-27T05:56:50.245Z,37.51
2022-08-27T05:59:37.077Z,37.62
2022-08-27T06:02:06.368Z,38.22
2022-08-27T06:04:34.029Z,36.95
2022-08-27T06:07:01.378Z,37.03
2022-08-27T06:09:29.824Z,36.75
2022-08-27T06:11:58.684Z,36.53
2022-08-27T06:14:26.775Z,35.80
2022-08-27T06:16:54.637Z,35.23
2022-08-27T06:19:21.926Z,36.87
2022-08-27T06:22:00.842Z,37.24
2022-08-27T06:24:39.850Z,38.43
2022-08-27T06:27:08.847Z,37.38
2022-08-27T06:29:36.149Z,38.89
2022-08-27T06:32:03.593Z,39.55
2022-08-27T06:34:30.785Z,40.40
2022-08-27T06:36:58.136Z,40.58
2022-08-27T06:39:25.411Z,41.67
2022-08-27T06:41:53.330Z,43.61
2022-08-27T06:44:24.513Z,43.36
2022-08-27T06:46:52.537Z,45.09
2022-08-27T06:49:19.731Z,42.90
2022-08-27T06:51:48.296Z,42.09
2022-08-27T06:54:17.303Z,42.75
2022-08-27T06:56:47.175Z,42.74
2022-08-27T06:59:17.730Z,41.53
2022-08-27T07:01:49.604Z,41.98
2022-08-27T07:04:32.412Z,44.32
2022-08-27T07:07:03.926Z,42.66
2022-08-27T07:09:35.088Z,41.56
2022-08-27T07:12:04.359Z,42.58
2022-08-27T07:14:37.155Z,41.19
2022-08-27T07:17:07.810Z,42.06
2022-08-27T07:19:41.127Z,42.06
2022-08-27T07:22:11.148Z,44.32
2022-08-27T07:24:38.515Z,45.07
2022-08-27T07:27:06.713Z,44.39
2022-08-27T07:29:33.968Z,43.32
2022-08-27T07:32:02.856Z,43.08
2022-08-27T07:34:30.411Z,43.80
2022-08-27T07:36:58.962Z,44.45
2022-08-27T07:39:26.267Z,43.60
2022-08-27T07:42:15.600Z,43.66
2022-08-27T07:44:42.896Z,43.70
2022-08-27T07:47:10.373Z,45.03
2022-08-27T07:49:37.942Z,44.88
2022-08-27T07:52:05.332Z,44.67
2022-08-27T07:54:33.440Z,45.40
2022-08-27T07:57:00.757Z,45.42
2022-08-27T07:59:28.306Z,45.59
2022-08-27T08:01:56.905Z,45.25
2022-08-27T08:04:25.334Z,46.16
2022-08-27T08:06:52.798Z,45.96
2022-08-27T08:09:22.471Z,46.87
2022-08-27T08:11:51.104Z,47.11
2022-08-27T08:14:19.256Z,46.93
2022-08-27T08:16:46.861Z,47.73
2022-08-27T08:19:14.184Z,47.19
2022-08-27T08:21:42.556Z,47.71
2022-08-27T08:24:09.779Z,47.13
2022-08-27T08:26:37.116Z,48.88
2022-08-27T08:29:07.187Z,48.84
2022-08-27T08:31:34.541Z,49.78
2022-08-27T08:34:01.939Z,50.03
2022-08-27T08:36:30.234Z,51.07
2022-08-27T08:38:57.487Z,51.18
2022-08-27T08:41:43.005Z,52.01
2022-08-27T08:44:32.727Z,53.67
2022-08-27T08:47:17.248Z,53.70
2022-08-27T08:49:56.529Z,56.07
2022-08-27T08:52:38.940Z,56.66
2022-08-27T08:55:47.963Z,57.01
2022-08-27T08:58:29.709Z,58.04
2022-08-27T09:01:00.760Z,58.06
2022-08-27T09:03:29.342Z,57.75
2022-08-27T09:06:24.397Z,57.92
2022-08-27T09:08:51.748Z,58.76
2022-08-27T09:11:27.884Z,59.25
2022-08-27T09:14:02.829Z,60.05
2022-08-27T09:16:30.717Z,59.67
2022-08-27T09:18:58.501Z,59.80
2022-08-27T09:22:02.228Z,60.41
2022-08-27T09:24:48.643Z,59.55
2022-08-27T09:27:16.437Z,59.75
2022-08-27T09:29:53.519Z,59.77
2022-08-27T09:32:27.253Z,59.18
2022-08-27T09:34:59.940Z,59.56
2022-08-27T09:37:34.201Z,60.02
2022-08-27T09:40:13.507Z,59.55
2022-08-27T09:42:56.407Z,59.30
2022-08-27T09:45:26.914Z,59.75
2022-08-27T09:48:16.797Z,60.11
2022-08-27T09:50:54.533Z,59.84
2022-08-27T09:53:29.789Z,59.61
2022-08-27T09:56:09.399Z,60.03
2022-08-27T09:58:45.817Z,58.22
2022-08-27T10:01:24.857Z,57.25
2022-08-27T10:04:13.837Z,57.69
2022-08-27T10:06:51.801Z,56.76
2022-08-27T10:09:35.870Z,57.99
2022-08-27T10:12:47.636Z,58.97
2022-08-27T10:15:15.669Z,57.68
2022-08-27T10:18:20.137Z,57.16
2022-08-27T10:21:09.464Z,58.33
2022-08-27T10:23:45.479Z,57.96
2022-08-27T10:26:41.179Z,57.42
2022-08-27T10:29:12.277Z,58.00
2022-08-27T10:31:58.127Z,57.13
2022-08-27T10:34:31.433Z,55.28
2022-08-27T10:37:19.745Z,56.27
2022-08-27T10:40:18.308Z,54.56
2022-08-27T10:43:18.138Z,56.23
2022-08-27T10:45:54.428Z,57.71
2022-08-27T10:48:35.418Z,57.19
2022-08-27T10:51:24.947Z,57.51
2022-08-27T10:54:10.606Z,60.02
2022-08-27T10:57:14.417Z,58.16
2022-08-27T11:00:11.022Z,57.29
2022-08-27T11:02:38.345Z,57.91
2022-08-27T11:05:24.418Z,58.08
2022-08-27T11:08:10.889Z,58.54
2022-08-27T11:10:47.467Z,58.71
2022-08-27T11:13:40.891Z,59.61
2022-08-27T11:16:45.464Z,56.99
2022-08-27T11:19:57.384Z,57.43
2022-08-27T11:22:34.861Z,56.56
2022-08-27T11:25:11.061Z,55.62
2022-08-27T11:27:40.329Z,55.89
2022-08-27T11:30:31.054Z,56.67
2022-08-27T11:33:31.998Z,57.32
2022-08-27T11:36:21.135Z,57.92
2022-08-27T11:38:51.468Z,58.37
2022-08-27T11:41:52.329Z,56.99
2022-08-27T11:44:23.126Z,56.84
2022-08-27T11:47:15.337Z,57.52
2022-08-27T11:49:52.010Z,56.64
2022-08-27T11:52:38.378Z,56.50
2022-08-27T11:55:21.055Z,57.56
2022-08-27T11:58:05.725Z,58.13
2022-08-27T12:00:36.107Z,58.29
2022-08-27T12:03:23.434Z,58.34
2022-08-27T12:05:53.574Z,57.77
2022-08-27T12:08:26.554Z,57.47
2022-08-27T12:11:15.317Z,57.43
2022-08-27T12:13:51.960Z,57.06
2022-08-27T12:16:42.376Z,57.27
2022-08-27T12:19:47.407Z,57.53
2022-08-27T12:22:36.620Z,57.95
2022-08-27T12:25:08.143Z,57.88
2022-08-27T12:27:35.519Z,58.94
2022-08-27T12:30:29.718Z,60.07
2022-08-27T12:32:59.798Z,60.80
2022-08-27T12:35:34.435Z,61.01
2022-08-27T12:38:01.866Z,60.83
2022-08-27T12:40:39.546Z,60.83
2022-08-27T12:43:18.568Z,60.93
2022-08-27T12:45:58.039Z,61.21
2022-08-27T12:48:30.610Z,61.55
2022-08-27T12:51:09.221Z,61.07
2022-08-27T12:53:52.855Z,60.48
2022-08-27T12:56:31.702Z,60.62
2022-08-27T12:59:11.711Z,60.15
2022-08-27T13:01:50.257Z,58.47
2022-08-27T13:04:23.430Z,58.73
2022-08-27T13:06:51.753Z,58.09
2022-08-27T13:09:31.575Z,58.83
2022-08-27T13:12:00.975Z,59.12
2022-08-27T13:14:36.667Z,58.88
2022-08-27T13:17:10.070Z,58.61
2022-08-27T13:19:44.724Z,58.50
2022-08-27T13:22:21.661Z,58.71
2022-08-27T13:24:51.607Z,57.84
2022-08-27T13:27:29.460Z,58.71
2022-08-27T13:30:01.922Z,59.79
2022-08-27T13:32:31.190Z,58.87
2022-08-27T13:35:00.799Z,59.68
2022-08-27T13:37:36.396Z,58.77
2022-08-27T13:40:04.342Z,58.00
2022-08-27T13:42:31.802Z,58.21
2022-08-27T13:45:04.925Z,58.48
2022-08-27T13:47:42.406Z,59.20
2022-08-27T13:50:25.842Z,59.63
2022-08-27T13:53:17.473Z,60.81
2022-08-27T13:55:49.272Z,60.24
2022-08-27T13:58:37.021Z,60.74
2022-08-27T14:01:32.939Z,61.38
2022-08-27T14:04:05.145Z,60.77
2022-08-27T14:06:43.934Z,61.86
2022-08-27T14:09:30.829Z,61.97
2022-08-27T14:12:10.955Z,62.88
2022-08-27T14:14:41.877Z,63.31
2022-08-27T14:17:26.781Z,63.77
2022-08-27T14:20:07.113Z,63.42
2022-08-27T14:22:37.408Z,65.12
2022-08-27T14:25:05.058Z,65.28
2022-08-27T14:27:32.584Z,65.67
2022-08-27T14:29:59.863Z,64.17
2022-08-27T14:32:27.354Z,64.66
2022-08-27T14:34:54.593Z,64.84
2022-08-27T14:37:22.088Z,64.94
2022-08-27T14:39:49.486Z,64.03
2022-08-27T14:42:17.901Z,62.76
2022-08-27T14:44:46.929Z,59.85
2022-08-27T14:47:16.695Z,62.19
2022-08-27T14:49:47.294Z,64.41
2022-08-27T14:52:15.589Z,64.16
2022-08-27T14:54:45.200Z,60.96
2022-08-27T14:57:12.703Z,61.17
2022-08-27T14:59:40.924Z,61.45
2022-08-27T15:02:14.170Z,60.88
2022-08-27T15:04:42.337Z,61.79
2022-08-27T15:07:14.751Z,61.98
2022-08-27T15:09:42.489Z,61.87
2022-08-27T15:12:15.086Z,61.61
2022-08-27T15:14:54.633Z,62.13
2022-08-27T15:17:34.667Z,61.71
2022-08-27T15:20:06.057Z,61.53
2022-08-27T15:22:34.771Z,61.63
2022-08-27T15:25:05.382Z,61.04
2022-08-27T15:27:38.435Z,60.80
2022-08-27T15:30:09.191Z,60.01
2022-08-27T15:32:40.662Z,59.71
2022-08-27T15:35:14.058Z,59.38
2022-08-27T15:37:42.901Z,58.55
2022-08-27T15:40:11.806Z,58.29
2022-08-27T15:42:39.317Z,58.34
2022-08-27T15:45:08.618Z,58.78
2022-08-27T15:47:35.954Z,58.67
2022-08-27T15:50:03.345Z,58.76
2022-08-27T15:52:40.196Z,58.59
2022-08-27T15:55:25.193Z,58.39
2022-08-27T15:57:52.470Z,58.89
2022-08-27T16:00:20.422Z,58.80
2022-08-27T16:02:48.798Z,58.04
2022-08-27T16:05:16.658Z,58.31
2022-08-27T16:07:44.821Z,58.23
2022-08-27T16:10:12.818Z,58.34
2022-08-27T16:12:40.260Z,57.53
2022-08-27T16:15:08.767Z,57.77
2022-08-27T16:17:36.597Z,57.41
2022-08-27T16:20:06.095Z,57.61
2022-08-27T16:22:35.082Z,57.35
2022-08-27T16:25:03.583Z,57.54
2022-08-27T16:27:30.801Z,57.89
2022-08-27T16:29:58.071Z,58.12
2022-08-27T16:32:26.110Z,57.91
2022-08-27T16:34:56.099Z,56.33
2022-08-27T16:37:24.969Z,56.77
2022-08-27T16:39:52.500Z,56.56
2022-08-27T16:42:20.629Z,56.34
2022-08-27T16:44:48.236Z,56.11
2022-08-27T16:47:16.174Z,56.24
2022-08-27T16:50:01.777Z,56.23
2022-08-27T16:52:30.339Z,56.10
2022-08-27T16:54:57.568Z,56.62
2022-08-27T16:57:24.970Z,55.27
2022-08-27T16:59:52.147Z,55.06
2022-08-27T17:02:31.594Z,54.88
2022-08-27T17:05:12.330Z,54.77
2022-08-27T17:07:50.039Z,55.96
2022-08-27T17:10:19.111Z,56.55
2022-08-27T17:12:47.417Z,56.71
2022-08-27T17:15:18.453Z,55.60
2022-08-27T17:17:46.529Z,56.07
2022-08-27T17:20:15.761Z,57.14
2022-08-27T17:22:43.978Z,57.72
2022-08-27T17:25:11.308Z,58.72
2022-08-27T17:27:38.883Z,59.30
2022-08-27T17:30:07.511Z,59.85
2022-08-27T17:32:39.009Z,60.52
2022-08-27T17:35:10.601Z,61.51
2022-08-27T17:37:38.580Z,62.14
2022-08-27T17:40:06.920Z,62.04
2022-08-27T17:42:34.271Z,63.23
2022-08-27T17:45:01.490Z,63.39
2022-08-27T17:47:30.141Z,62.61
2022-08-27T17:49:59.247Z,61.45
2022-08-27T17:52:26.475Z,61.80
2022-08-27T17:54:56.959Z,62.07
2022-08-27T17:57:25.680Z,62.52
2022-08-27T17:59:55.742Z,62.74
2022-08-27T18:02:33.492Z,63.36
2022-08-27T18:05:01.266Z,63.31
2022-08-27T18:07:30.575Z,63.52
2022-08-27T18:09:57.806Z,63.74
2022-08-27T18:12:27.524Z,63.93
2022-08-27T18:15:10.661Z,63.99
2022-08-27T18:17:42.528Z,64.04
2022-08-27T18:20:13.479Z,64.55
2022-08-27T18:22:48.306Z,64.68
2022-08-27T18:25:18.213Z,64.97
2022-08-27T18:27:48.661Z,65.58
2022-08-27T18:30:16.643Z,65.64
2022-08-27T18:32:43.991Z,65.65
2022-08-27T18:35:20.799Z,65.42
2022-08-27T18:37:48.480Z,65.20
2022-08-27T18:40:17.597Z,65.34
2022-08-27T18:42:45.389Z,65.42
2022-08-27T18:45:28.529Z,65.52
2022-08-27T18:47:56.829Z,64.55
2022-08-27T18:50:25.024Z,58.87
2022-08-27T18:52:57.026Z,56.69
2022-08-27T18:55:28.486Z,51.07
2022-08-27T18:57:57.135Z,50.17
2022-08-27T19:00:25.398Z,50.00
2022-08-27T19:02:54.095Z,49.17
2022-08-27T19:05:25.360Z,49.08
2022-08-27T19:07:54.415Z,49.30
2022-08-27T19:10:21.897Z,48.95
2022-08-27T19:12:49.228Z,49.16
2022-08-27T19:15:17.471Z,49.27
2022-08-27T19:17:50.888Z,49.16
2022-08-27T19:20:18.970Z,50.50
2022-08-27T19:22:48.172Z,50.10
2022-08-27T19:25:16.578Z,50.76
2022-08-27T19:27:45.431Z,51.05
2022-08-27T19:30:15.281Z,51.65
2022-08-27T19:32:42.607Z,52.29
2022-08-27T19:35:10.764Z,52.42
2022-08-27T19:37:42.884Z,52.96
2022-08-27T19:40:13.212Z,53.61
2022-08-27T19:42:41.678Z,54.27
2022-08-27T19:45:09.612Z,54.97
2022-08-27T19:47:37.337Z,54.96
2022-08-27T19:50:05.901Z,55.01
2022-08-27T19:52:33.191Z,55.20
2022-08-27T19:55:13.730Z,55.93
2022-08-27T19:57:42.823Z,56.54
2022-08-27T20:00:11.630Z,56.47
2022-08-27T20:02:39.166Z,57.06
2022-08-27T20:05:22.990Z,57.40
2022-08-27T20:07:52.146Z,58.08
2022-08-27T20:10:23.433Z,61.67
2022-08-27T20:13:00.141Z,62.61
2022-08-27T20:15:27.598Z,66.82
2022-08-27T20:17:56.314Z,67.49
2022-08-27T20:20:25.516Z,67.91
2022-08-27T20:22:53.520Z,67.12
2022-08-27T20:25:21.136Z,67.24
2022-08-27T20:27:48.343Z,67.19
2022-08-27T20:30:17.001Z,67.39
2022-08-27T20:32:44.235Z,68.24
2022-08-27T20:35:11.725Z,68.38
2022-08-27T20:37:42.273Z,68.46
2022-08-27T20:40:18.150Z,68.06
2022-08-27T20:42:45.634Z,68.45
2022-08-27T20:45:13.873Z,68.56
2022-08-27T20:47:43.576Z,68.67
2022-08-27T20:50:12.034Z,68.78
2022-08-27T20:52:40.404Z,68.57
2022-08-27T20:55:09.932Z,68.47
2022-08-27T20:57:37.081Z,68.11
2022-08-27T21:00:21.572Z,68.46
2022-08-27T21:02:48.923Z,68.64
2022-08-27T21:05:18.288Z,68.48
2022-08-27T21:07:48.778Z,68.35
2022-08-27T21:10:16.414Z,68.65
2022-08-27T21:12:44.499Z,68.71
2022-08-27T21:15:13.626Z,69.01
2022-08-27T21:17:41.312Z,69.28
2022-08-27T21:20:11.098Z,69.52
2022-08-27T21:22:39.489Z,69.84
2022-08-27T21:25:08.793Z,70.57
2022-08-27T21:27:36.691Z,70.86
2022-08-27T21:30:05.237Z,71.12
2022-08-27T21:32:34.914Z,71.44
2022-08-27T21:35:02.201Z,71.11
2022-08-27T21:37:29.379Z,70.28
2022-08-27T21:39:56.735Z,68.85
2022-08-27T21:42:25.432Z,67.98
2022-08-27T21:44:52.737Z,67.15
2022-08-27T21:47:20.019Z,67.07
2022-08-27T21:49:47.188Z,66.93
2022-08-27T21:52:14.583Z,67.04
2022-08-27T21:54:42.375Z,67.21
2022-08-27T21:57:13.921Z,66.93
2022-08-27T21:59:45.894Z,66.72
2022-08-27T22:02:38.340Z,66.66
2022-08-27T22:05:02.688Z,66.97
2022-08-27T22:07:30.066Z,66.90
2022-08-27T22:09:57.388Z,67.31
2022-08-27T22:12:25.658Z,67.31
2022-08-27T22:14:52.801Z,67.56
2022-08-27T22:17:19.987Z,67.45
2022-08-27T22:19:47.166Z,68.09
2022-08-27T22:22:14.437Z,68.90
2022-08-27T22:24:41.576Z,69.49
2022-08-27T22:27:08.839Z,69.53
2022-08-27T22:29:36.173Z,69.72
2022-08-27T22:32:03.719Z,70.43
2022-08-27T22:34:30.846Z,70.22
2022-08-27T22:36:58.034Z,70.58
2022-08-27T22:39:25.250Z,70.33
2022-08-27T22:41:56.299Z,70.22
2022-08-27T22:44:24.821Z,69.81
2022-08-27T22:46:52.207Z,69.08
2022-08-27T22:49:19.471Z,68.15
2022-08-27T22:51:46.875Z,67.83
2022-08-27T22:54:14.205Z,67.91
2022-08-27T22:56:41.469Z,67.51
2022-08-27T22:59:08.794Z,67.84
2022-08-27T23:01:36.595Z,68.21
2022-08-27T23:04:04.907Z,68.32
2022-08-27T23:06:34.021Z,68.40
2022-08-27T23:09:02.002Z,68.73
2022-08-27T23:11:31.965Z,69.37
2022-08-27T23:14:00.230Z,69.57
2022-08-27T23:16:28.319Z,69.56
2022-08-27T23:18:55.618Z,69.82
2022-08-27T23:21:22.959Z,69.96
2022-08-27T23:23:50.346Z,70.02
2022-08-27T23:26:35.824Z,70.49
2022-08-27T23:29:03.198Z,70.33
2022-08-27T23:31:30.612Z,70.64
2022-08-27T23:33:58.330Z,70.79
2022-08-27T23:36:25.684Z,70.48
2022-08-27T23:38:53.138Z,70.61
2022-08-27T23:41:20.434Z,71.00
2022-08-27T23:43:47.780Z,71.45
2022-08-27T23:46:15.203Z,71.62
2022-08-27T23:48:42.540Z,72.13
2022-08-27T23:51:10.553Z,71.89
2022-08-27T23:53:38.382Z,72.43
2022-08-27T23:56:06.217Z,72.56
2022-08-27T23:58:33.384Z,72.98
